Terminal Aerodrome Forecast
Issued by NWS Albany, NY

Home | Current Version | Previous Version | Text Only | Print | Product List | Glossary On
Versions: 1 2 3 4 5 6 7 8 9 10 11 12 13 14 15 16 17 18 19
000
FTUS41 KALY 270529
TAFPOU
TAF
KPOU 270529Z 2706/2806 14004KT P6SM SCT120
     FM271300 19008KT P6SM BKN050
     FM271800 19010G15KT P6SM VCSH BKN050 PROB30 2718/2722
      VRB20G35KT 2SM TSRA OVC015CB=

USA.gov is the U.S. government's official web portal to all federal, state and local government web resources and services.